Date,TemperatureHighF,TemperatureAvgF,TemperatureLowF,DewpointHighF,DewpointAvgF,DewpointLowF,HumidityHigh,HumidityAvg,HumidityLow,PressureMaxIn,PressureMinIn,WindSpeedMaxMPH,WindSpeedAvgMPH,GustSpeedMaxMPH,PrecipitationSumIn
2013-9-1,80,73,67,-100,-100,-100,0,0,100,0.00,40.00,0,-999,0,0.86
2013-9-2,71,69,66,-100,-100,-100,0,0,100,0.00,40.00,0,-999,0,1.71
2013-9-3,73,67,60,-100,-100,-100,0,0,100,0.00,40.00,0,-999,0,0.09
2013-9-4,74,67,55,-100,-100,-100,0,0,100,0.00,40.00,0,-999,0,0.00
2013-9-5,67,59,44,-100,-100,-100,0,0,100,0.00,40.00,0,-999,0,0.01
2013-9-6,65,51,37,-100,-100,-100,0,0,100,0.00,40.00,0,-999,0,0.01
2013-9-7,72,58,46,-100,-100,-100,0,0,100,0.00,40.00,0,-999,0,0.00
2013-9-8,65,58,43,-100,-100,-100,0,0,100,0.00,40.00,0,-999,0,0.00
2013-9-9,66,55,36,-100,-100,-100,0,0,100,0.00,40.00,0,-999,0,0.00
2013-9-10,65,57,46,-100,-100,-100,0,0,100,0.00,40.00,0,-999,0,0.12
2013-9-11,88,73,63,-100,-100,-100,0,0,100,0.00,40.00,0,-999,0,0.16
2013-9-12,74,69,65,-100,-100,-100,0,0,100,0.00,40.00,0,-999,0,0.64
2013-9-13,68,64,54,-100,-100,-100,0,0,100,0.00,40.00,0,-999,0,1.22
2013-9-14,65,56,48,-100,-100,-100,0,0,100,0.00,40.00,0,-999,0,0.12
2013-9-15,67,53,39,-100,-100,-100,0,0,100,0.00,40.00,0,-999,0,0.12
2013-9-16,61,54,41,-100,-100,-100,0,0,100,0.00,40.00,0,-999,0,0.04
2013-9-17,61,47,32,-100,-100,-100,0,0,100,0.00,40.00,0,-999,0,0.01
2013-9-18,47,39,36,-100,-100,-100,0,0,100,0.00,40.00,0,-999,0,0.00
2013-9-19,72,57,40,-100,-100,-100,0,0,100,0.00,40.00,0,-999,0,0.00
2013-9-20,74,62,44,-100,-100,-100,0,0,100,0.00,40.00,0,-999,0,0.00
2013-9-21,71,60,45,-100,-100,-100,0,0,100,0.00,40.00,0,-999,0,0.00
2013-9-22,67,61,50,-100,-100,-100,0,0,100,0.00,40.00,0,-999,0,0.39
2013-9-23,55,50,42,-100,-100,-100,0,0,100,0.00,40.00,0,-999,0,0.01
2013-9-24,60,54,48,-100,-100,-100,0,0,100,0.00,40.00,0,-999,0,0.00
2013-9-25,61,53,40,-100,-100,-100,0,0,100,0.00,40.00,0,-999,0,0.00
2013-9-26,65,51,35,-100,-100,-100,0,0,100,0.00,40.00,0,-999,0,0.00
2013-9-27,66,56,47,-100,-100,-100,0,0,100,0.00,40.00,0,-999,0,0.00
2013-9-28,71,58,42,-100,-100,-100,0,0,100,0.00,40.00,0,-999,0,0.00
2013-9-29,67,54,40,-100,-100,-100,0,0,100,0.00,40.00,0,-999,0,0.00
2013-9-30,67,52,39,-100,-100,-100,0,0,100,0.00,40.00,0,-999,0,0.00